| Date | Time | Temp. (oF) | Dew Point (oF) | Rel. Hum. (%) | Press. (in.) | Wind Dir. | Wind Speed (mph) | Hourly Rainfall (in.) |
|
|---|---|---|---|---|---|---|---|---|---|
| 1 | 05/02 | 00:00 | 63 | 60 | 93 | 29.83 | SSW | 2 | 0.00 |
| 2 | 05/01 | 23:00 | 63 | 62 | 97 | 29.84 | SSW | 3 | 0.00 |
| 3 | 05/01 | 22:00 | 63 | 61 | 96 | 29.86 | SW | 0 | 0.00 |
| 4 | 05/01 | 21:00 | 65 | 62 | 93 | 29.84 | SSW | 0 | 0.00 |
| 5 | 05/01 | 20:00 | 67 | 63 | 90 | 29.83 | SW | 3 | 0.00 |
| 6 | 05/01 | 19:00 | 69 | 65 | 88 | 29.83 | SW | 5 | 0.00 |
| 7 | 05/01 | 18:00 | 68 | 65 | 92 | 29.85 | SW | 2 | 0.01 |
| 8 | 05/01 | 17:00 | 69 | 66 | 92 | 29.85 | SW | 3 | 0.00 |
| 9 | 05/01 | 16:00 | 68 | 66 | 94 | 29.87 | SW | 5 | 0.01 |
| 10 | 05/01 | 15:00 | 66 | 64 | 96 | 29.90 | SW | 3 | 0.28 |
| 11 | 05/01 | 14:00 | 66 | 62 | 90 | 29.92 | SW | 2 | 0.18 |
| 12 | 05/01 | 13:00 | 70 | 63 | 81 | 29.92 | SSW | 8 | 0.00 |
| 13 | 05/01 | 12:00 | 68 | 63 | 86 | 29.94 | SSW | 11 | 0.00 |
| 14 | 05/01 | 11:00 | 65 | 62 | 91 | 29.96 | SW | 3 | 0.00 |
| 15 | 05/01 | 10:00 | 63 | 60 | 93 | 29.98 | S | 7 | 0.00 |
| 16 | 05/01 | 09:00 | 62 | 60 | 94 | 29.98 | SW | 5 | 0.00 |
| 17 | 05/01 | 08:00 | 62 | 60 | 94 | 29.99 | SSW | 8 | 0.01 |
| 18 | 05/01 | 07:00 | 62 | 59 | 91 | 30.00 | SSW | 5 | 0.00 |
| 19 | 05/01 | 06:00 | 61 | 58 | 91 | 30.00 | S | 4 | 0.00 |
| 20 | 05/01 | 05:00 | 60 | 57 | 92 | 30.00 | SW | 4 | 0.00 |
| 21 | 05/01 | 04:00 | 59 | 56 | 93 | 30.02 | SW | 7 | 0.00 |
| 22 | 05/01 | 03:00 | 58 | 56 | 94 | 30.04 | SSW | 7 | 0.01 |
| 23 | 05/01 | 02:00 | 58 | 55 | 93 | 30.07 | SSW | 9 | 0.04 |
| 24 | 05/01 | 01:00 | 59 | 55 | 88 | 30.11 | SW | 7 | 0.00 |